CW7104 Weather Reports


time (UTC)temp
C
wind
direction
speed
KPH
gust
KPH
rain 1hr
cm
rain 24hr
cm
rain mn
cm
humidity
%
barometer
mb
20200803152403 20 256 0.0 0.0 0.91 1.83 1.75 90 1014.9
20200803151903 19 256 0.0 0.0 0.84 1.75 1.68 90 1014.8
20200803151403 19 256 0.0 0.0 0.76 1.68 1.60 90 1014.8
20200803150903 19 256 0.0 3.2 0.71 1.60 1.52 90 1014.8
20200803150403 19 256 0.0 3.2 0.64 1.52 1.45 90 1014.7
20200803145904 18 256 0.0 0.0 0.56 1.42 1.35 90 1014.6
20200803145403 18 256 0.0 0.0 0.48 1.35 1.24 90 1014.4
20200803144903 18 256 0.0 0.0 0.43 1.24 1.17 90 1014.3
20200803144403 18 256 0.0 14.5 0.33 1.14 1.07 90 1014.2
20200803143903 18 256 0.0 14.5 0.28 1.07 0.99 90 1014.1
20200803143403 18 68 8.0 24.1 0.18 0.97 0.89 90 1013.9
20200803142903 19 139 3.2 24.1 0.13 0.91 0.84 90 1014.4
20200803142403 20 161 4.8 19.3 0.13 0.89 0.81 90 1015.0
20200803141904 20 142 0.0 1.6 0.13 0.89 0.81 90 1014.6
20200803141404 20 141 0.0 1.6 0.15 0.89 0.81 90 1014.5
20200803140903 20 141 0.0 0.0 0.13 0.86 0.79 90 1014.3
20200803140403 20 141 0.0 4.8 0.13 0.86 0.79 90 1014.3
20200803135903 20 142 0.0 4.8 0.13 0.84 0.76 90 1014.4
20200803135403 20 161 0.0 0.0 0.13 0.84 0.76 90 1014.4
20200803134903 20 161 0.0 0.0 0.10 0.81 0.74 90 1014.5
20200803134404 20 161 0.0 0.0 0.13 0.81 0.74 90 1014.4
20200803133904 20 161 0.0 0.0 0.10 0.79 0.71 90 1014.4
20200803133403 20 161 0.0 0.0 0.10 0.79 0.71 90 1014.4
20200803132903 20 161 0.0 0.0 0.13 0.79 0.71 90 1014.4
20200803132403 20 161 0.0 0.0 0.10 0.76 0.69 90 1014.4
20200803131903 20 161 0.0 0.0 0.13 0.76 0.69 90 1014.4
20200803131403 20 161 0.0 0.0 0.10 0.74 0.66 90 1014.3
20200803130903 20 161 0.0 0.0 0.10 0.74 0.66 90 1014.2
20200803130403 20 161 0.0 0.0 0.10 0.74 0.66 90 1014.2
20200803125903 20 161 0.0 0.0 0.08 0.71 0.64 90 1014.1
20200803125403 20 161 0.0 0.0 0.08 0.71 0.64 90 1014.0
20200803124904 20 161 0.0 0.0 0.10 0.71 0.64 90 1014.0
20200803124403 20 161 0.0 0.0 0.08 0.69 0.61 90 1014.0
20200803123904 20 161 0.0 0.0 0.08 0.69 0.61 90 1014.0
20200803123404 20 161 0.0 0.0 0.10 0.69 0.61 90 1014.0
20200803122903 19 161 0.0 0.0 0.08 0.66 0.58 90 1014.1
20200803122404 19 161 0.0 0.0 0.10 0.66 0.58 90 1014.1
20200803121904 19 161 0.0 0.0 0.08 0.64 0.56 90 1014.1
20200803121403 19 161 0.0 0.0 0.08 0.64 0.56 90 1014.1
20200803120903 19 161 0.0 0.0 0.08 0.64 0.56 90 1014.1
20200803120404 19 161 0.0 0.0 0.10 0.64 0.56 90 1013.9
20200803115904 18 161 0.0 0.0 0.10 0.64 0.56 90 1013.9
20200803115403 18 161 0.0 0.0 0.13 0.64 0.56 90 1013.8
20200803114904 18 161 0.0 1.6 0.10 0.61 0.53 90 1013.7
20200803114403 18 161 0.0 3.2 0.10 0.61 0.53 90 1013.7
20200803113905 18 161 0.0 3.2 0.13 0.61 0.53 90 1013.7
20200803112903 18 198 0.0 3.2 0.10 0.58 0.51 90 1013.8
20200803112403 18 241 0.0 1.6 0.10 0.56 0.48 90 1013.8
20200803111903 18 265 0.0 0.0 0.10 0.58 0.48 90 1013.8
20200803111404 18 265 0.0 4.8 0.10 0.58 0.48 90 1013.8
20200803110904 18 149 0.0 4.8 0.13 0.58 0.48 90 1013.8
20200803110404 18 160 0.0 4.8 0.10 0.56 0.46 90 1013.9
20200803105904 18 160 0.0 0.0 0.10 0.56 0.46 90 1013.9
20200803105403 18 157 0.0 0.0 0.10 0.53 0.43 90 1013.8
20200803104903 18 157 0.0 0.0 0.10 0.53 0.43 90 1013.9
20200803104403 18 157 0.0 0.0 0.10 0.53 0.43 90 1013.9
20200803103904 18 158 0.0 0.0 0.10 0.51 0.41 90 1014.0
20200803103404 18 158 0.0 0.0 0.10 0.51 0.41 90 1013.9
20200803102903 18 158 0.0 0.0 0.13 0.51 0.41 90 1013.8
20200803102403 18 158 0.0 0.0 0.10 0.48 0.38 90 1013.7
20200803101903 18 158 0.0 8.0 0.10 0.48 0.38 90 1013.6
20200803101403 18 158 0.0 8.0 0.13 0.48 0.38 90 1013.5
20200803100903 18 160 0.0 4.8 0.10 0.46 0.36 90 1013.6
20200803100404 18 160 0.0 4.8 0.13 0.46 0.36 90 1013.7
20200803095904 18 160 0.0 0.0 0.13 0.46 0.36 90 1013.7
20200803095404 18 160 0.0 0.0 0.10 0.46 0.33 90 1013.6
20200803094903 18 160 0.0 0.0 0.13 0.46 0.33 90 1013.5
20200803094404 18 160 0.0 0.0 0.13 0.46 0.33 90 1013.3
20200803093903 18 160 0.0 0.0 0.13 0.43 0.30 90 1013.3
20200803093404 18 160 0.0 0.0 0.13 0.43 0.30 90 1013.4
20200803092904 18 160 0.0 3.2 0.10 0.41 0.28 90 1013.4
20200803092404 18 160 0.0 4.8 0.10 0.41 0.28 90 1013.3
20200803091903 18 161 1.6 4.8 0.13 0.41 0.28 90 1013.1
20200803091403 19 163 0.0 0.0 0.10 0.38 0.25 90 1013.0
20200803090905 19 163 0.0 0.0 0.10 0.38 0.25 90 1012.9
20200803090405 19 163 0.0 0.0 0.10 0.36 0.23 90 1012.8
20200803085904 19 163 0.0 0.0 0.10 0.36 0.23 90 1012.8
20200803085403 19 163 0.0 0.0 0.10 0.36 0.23 90 1012.9
20200803084903 19 163 0.0 0.0 0.08 0.33 0.20 90 1012.9
20200803084403 19 163 0.0 0.0 0.08 0.33 0.20 90 1012.9
20200803083904 20 164 0.0 3.2 0.05 0.30 0.18 90 1013.0
20200803083403 20 164 0.0 8.0 0.05 0.30 0.18 90 1013.2
20200803082903 20 178 0.0 9.7 0.05 0.30 0.18 90 1013.3
20200803082403 20 188 0.0 9.7 0.05 0.30 0.18 90 1013.3
20200803081903 20 165 1.6 8.0 0.05 0.30 0.15 90 1013.2
20200803081404 20 186 1.6 8.0 0.05 0.30 0.15 90 1013.2
20200803080903 20 205 0.0 1.6 0.05 0.30 0.15 90 1013.2
20200803080403 20 205 0.0 1.6 0.03 0.28 0.13 90 1013.1
20200803075903 20 205 0.0 0.0 0.03 0.28 0.13 90 1013.0
20200803075404 20 205 0.0 0.0 0.03 0.28 0.13 90 1013.0
20200803074903 20 205 0.0 0.0 0.05 0.28 0.13 90 1013.0
20200803074403 20 205 0.0 0.0 0.05 0.28 0.13 90 1013.1
20200803073904 20 205 0.0 0.0 0.05 0.28 0.13 90 1013.2
20200803073403 20 205 0.0 0.0 0.05 0.28 0.13 90 1013.2
20200803072903 20 205 0.0 0.0 0.05 0.28 0.13 90 1013.2
20200803072403 20 205 0.0 0.0 0.05 0.28 0.13 90 1013.2
20200803071903 20 205 0.0 0.0 0.05 0.25 0.10 90 1013.3
20200803071404 20 205 0.0 0.0 0.05 0.28 0.10 90 1013.2
20200803070904 20 205 0.0 0.0 0.05 0.28 0.10 90 1013.2
20200803070403 20 205 0.0 1.6 0.05 0.28 0.10 90 1013.2
20200803065904 20 220 0.0 1.6 0.05 0.28 0.10 90 1013.2
20200803065403 20 242 0.0 1.6 0.08 0.28 0.10 90 1013.2
20200803064904 20 258 0.0 0.0 0.05 0.25 0.08 90 1013.2
20200803064404 20 258 0.0 0.0 0.05 0.25 0.08 90 1013.1
20200803063903 20 258 0.0 0.0 0.05 0.25 0.08 90 1013.0
20200803063403 20 258 0.0 0.0 0.05 0.25 0.08 90 1013.1
20200803062904 20 258 0.0 0.0 0.05 0.25 0.08 90 1012.9
20200803062404 20 258 0.0 0.0 0.05 0.25 0.08 89 1012.9
20200803061904 20 258 0.0 0.0 0.03 0.23 0.05 89 1012.8
20200803061403 20 258 0.0 0.0 0.03 0.23 0.05 89 1012.9
20200803060903 20 258 0.0 0.0 0.05 0.25 0.05 89 1012.9
20200803060404 20 258 0.0 0.0 0.05 0.25 0.05 89 1013.0
20200803055903 20 258 0.0 0.0 0.05 0.25 0.05 89 1013.0
20200803055405 20 258 0.0 0.0 0.03 0.23 0.03 89 1013.0
20200803054904 20 258 0.0 0.0 0.03 0.23 0.03 89 1013.0
20200803054403 20 258 0.0 0.0 0.03 0.23 0.03 89 1013.0
20200803053904 20 258 0.0 0.0 0.03 0.23 0.03 88 1013.2
20200803053403 21 258 0.0 0.0 0.03 0.23 0.03 88 1013.2
20200803052903 21 263 0.0 0.0 0.03 0.23 0.03 88 1013.3
20200803052404 21 263 0.0 0.0 0.03 0.23 0.03 88 1013.4
20200803051903 21 263 0.0 8.0 0.03 0.25 0.03 87 1013.4
20200803051404 21 262 0.0 14.5 0.03 0.25 0.03 87 1013.5
20200803050903 21 245 3.2 14.5 0.00 0.23 0.00 88 1013.6
20200803050404 21 251 0.0 8.0 0.00 0.23 0.00 88 1013.7
20200803045904 21 251 3.2 8.0 0.00 0.23 0.23 88 1013.5
20200803045404 21 210 0.0 0.0 0.00 0.23 0.23 88 1013.1
20200803044904 22 210 0.0 0.0 0.00 0.23 0.23 87 1013.1
20200803044403 22 210 0.0 0.0 0.00 0.23 0.23 87 1013.2
20200803043903 22 208 0.0 0.0 0.00 0.23 0.23 87 1013.1
20200803043403 22 208 0.0 0.0 0.00 0.23 0.23 87 1013.1
20200803042903 22 208 0.0 0.0 0.00 0.23 0.23 87 1013.0
20200803042403 22 208 0.0 0.0 0.00 0.25 0.23 87 1013.1
20200803041903 22 208 0.0 0.0 0.00 0.25 0.23 86 1013.2
20200803041403 22 208 0.0 0.0 0.00 0.25 0.23 86 1013.3
20200803040904 22 208 0.0 0.0 0.00 0.25 0.23 85 1013.3
20200803040403 22 208 0.0 0.0 0.00 0.25 0.23 85 1013.3
20200803035903 22 208 0.0 0.0 0.00 0.25 0.23 84 1013.3
20200803035403 22 208 0.0 0.0 0.00 0.25 0.23 84 1013.3
20200803034903 22 208 0.0 0.0 0.00 0.25 0.23 84 1013.3
20200803034403 22 209 0.0 0.0 0.00 0.28 0.23 84 1013.3
20200803033904 22 208 0.0 0.0 0.00 0.28 0.23 84 1013.3
20200803033404 22 209 0.0 0.0 0.00 0.28 0.23 84 1013.3
20200803032904 22 209 0.0 1.6 0.00 0.28 0.23 84 1013.3
20200803032404 22 209 0.0 1.6 0.00 0.28 0.23 84 1013.4
20200803031904 22 208 0.0 0.0 0.00 0.28 0.23 84 1013.5
20200803031403 22 208 0.0 0.0 0.00 0.28 0.23 84 1013.5
20200803030903 22 209 0.0 0.0 0.00 0.28 0.23 84 1013.4
20200803030404 22 209 0.0 0.0 0.00 0.28 0.23 83 1013.3
20200803025903 22 209 0.0 0.0 0.00 0.28 0.23 83 1013.4
20200803025404 22 209 0.0 0.0 0.00 0.28 0.23 83 1013.3
20200803024904 22 209 0.0 0.0 0.00 0.30 0.23 83 1013.3
20200803024403 22 209 0.0 0.0 0.00 0.30 0.23 83 1013.3
20200803023904 22 209 0.0 0.0 0.00 0.30 0.23 83 1013.3
20200803023404 22 209 0.0 0.0 0.00 0.30 0.23 83 1013.3
20200803022904 22 209 0.0 0.0 0.00 0.30 0.23 83 1013.3
20200803022404 22 209 0.0 0.0 0.00 0.30 0.23 82 1013.2
20200803021904 22 209 0.0 0.0 0.00 0.30 0.23 82 1013.2
20200803021404 22 209 0.0 0.0 0.00 0.30 0.23 82 1013.1
20200803020904 22 209 0.0 0.0 0.00 0.33 0.23 82 1013.0
20200803020404 22 209 0.0 0.0 0.00 0.33 0.23 81 1012.9
20200803015904 23 209 0.0 0.0 0.00 0.33 0.23 81 1012.8
20200803015405 23 209 0.0 0.0 0.00 0.33 0.23 81 1012.7
20200803014904 23 209 0.0 0.0 0.00 0.33 0.23 80 1012.7
20200803014404 23 209 0.0 1.6 0.00 0.33 0.23 80 1012.7
20200803013904 23 209 0.0 1.6 0.00 0.33 0.23 79 1012.7
20200803013404 23 196 0.0 1.6 0.00 0.33 0.23 79 1012.7
20200803012903 23 188 0.0 3.2 0.00 0.33 0.23 79 1012.7
20200803012404 23 188 0.0 3.2 0.00 0.36 0.23 79 1012.8
20200803011904 23 204 0.0 0.0 0.00 0.36 0.23 78 1012.7
20200803011404 23 240 0.0 0.0 0.00 0.36 0.23 78 1012.8
20200803010904 23 240 0.0 0.0 0.00 0.36 0.23 78 1012.8
20200803010404 23 240 0.0 0.0 0.00 0.36 0.23 77 1012.8
20200803005903 23 240 0.0 1.6 0.00 0.36 0.23 77 1012.7
20200803005403 24 240 0.0 1.6 0.00 0.36 0.23 76 1012.8
20200803004903 24 240 0.0 0.0 0.00 0.38 0.23 76 1012.9
20200803004403 24 240 0.0 0.0 0.00 0.38 0.23 75 1012.9
20200803003903 24 246 0.0 0.0 0.00 0.38 0.23 75 1012.8
20200803003404 24 246 0.0 0.0 0.00 0.38 0.23 74 1012.8
20200803002903 24 246 0.0 0.0 0.00 0.38 0.23 74 1012.7
20200803002403 25 246 0.0 0.0 0.00 0.38 0.23 73 1012.6
20200803001904 25 246 0.0 0.0 0.00 0.41 0.23 73 1012.6
20200803001403 25 246 0.0 0.0 0.00 0.41 0.23 72 1012.7
20200803000903 25 246 0.0 0.0 0.00 0.41 0.23 72 1012.7
20200803000403 25 246 0.0 1.6 0.00 0.41 0.23 71 1012.6
20200802235903 25 246 0.0 1.6 0.00 0.41 0.23 70 1012.6
20200802235404 25 246 0.0 0.0 0.00 0.41 0.23 71 1012.6
20200802234903 25 246 0.0 1.6 0.00 0.43 0.23 70 1012.5
20200802234403 25 246 0.0 8.0 0.00 0.43 0.23 69 1012.5
20200802233904 25 246 0.0 8.0 0.00 0.43 0.23 69 1012.5
20200802233404 25 223 0.0 8.0 0.00 0.43 0.23 70 1012.5
20200802232903 26 269 0.0 1.6 0.00 0.43 0.23 70 1012.5
20200802232404 26 231 0.0 1.6 0.00 0.46 0.23 72 1012.4
20200802231903 25 230 0.0 3.2 0.00 0.46 0.23 72 1012.4
20200802231404 25 231 0.0 3.2 0.00 0.46 0.23 71 1012.5
20200802230904 25 200 0.0 0.0 0.00 0.46 0.23 72 1012.3
20200802230405 25 200 0.0 0.0 0.00 0.46 0.23 73 1012.3
20200802225904 25 228 0.0 0.0 0.00 0.48 0.23 72 1012.3
20200802225404 25 169 0.0 0.0 0.00 0.48 0.23 74 1012.1
20200802224904 25 246 0.0 0.0 0.00 0.48 0.23 73 1012.1
20200802224404 25 190 0.0 0.0 0.00 0.48 0.23 73 1012.1
20200802223904 25 221 0.0 9.7 0.00 0.51 0.23 72 1012.2
20200802223405 26 192 0.0 9.7 0.00 0.51 0.23 72 1012.2
20200802222904 26 251 0.0 9.7 0.00 0.51 0.23 72 1012.2
20200802222403 26 242 0.0 1.6 0.00 0.51 0.23 72 1012.3
20200802221904 26 250 0.0 4.8 0.00 0.53 0.23 72 1012.3
20200802221404 26 250 0.0 4.8 0.00 0.53 0.23 71 1012.3
20200802220903 26 252 0.0 4.8 0.00 0.53 0.23 72 1012.3
20200802220404 26 299 0.0 1.6 0.00 0.53 0.23 72 1012.3
20200802215904 26 243 0.0 11.3 0.00 0.56 0.23 73 1012.2
20200802215403 25 261 0.0 14.5 0.00 0.56 0.23 73 1012.3
20200802214903 25 258 4.8 14.5 0.00 0.56 0.23 72 1012.3
20200802214404 25 256 1.6 11.3 0.00 0.58 0.23 73 1012.3
20200802213904 25 254 4.8 12.9 0.00 0.58 0.23 73 1012.2
20200802213403 25 263 4.8 12.9 0.00 0.58 0.23 73 1012.2
20200802212904 25 254 3.2 19.3 0.00 0.61 0.23 73 1012.2
20200802212404 25 273 8.0 19.3 0.00 0.61 0.23 72 1012.1
20200802211904 25 257 6.4 16.1 0.00 0.61 0.23 72 1012.2
20200802211404 26 294 9.7 16.1 0.00 0.64 0.23 70 1012.1
20200802210903 27 260 6.4 24.1 0.00 0.64 0.23 69 1012.1
20200802210403 27 275 9.7 24.1 0.00 0.64 0.23 64 1012.0
20200802205903 28 192 0.0 8.0 0.00 0.66 0.23 63 1011.9
20200802205403 28 194 0.0 11.3 0.00 0.66 0.23 63 1011.9
20200802204904 29 224 0.0 11.3 0.00 0.69 0.23 62 1012.0
20200802204404 29 144 3.2 9.7 0.00 0.69 0.23 62 1012.0
20200802203904 29 146 0.0 9.7 0.00 0.69 0.23 62 1012.1
20200802203404 28 246 0.0 9.7 0.00 0.71 0.23 63 1012.1
20200802202904 28 155 0.0 4.8 0.00 0.71 0.23 67 1012.1
20200802202404 27 160 0.0 9.7 0.00 0.74 0.23 68 1012.2
20200802201904 27 158 3.2 9.7 0.00 0.74 0.23 68 1012.2
20200802201405 27 183 0.0 12.9 0.00 0.74 0.23 68 1012.3
20200802200904 27 193 3.2 12.9 0.00 0.76 0.23 68 1012.2
20200802200405 27 187 1.6 14.5 0.00 0.76 0.23 68 1012.2
20200802195904 27 210 1.6 14.5 0.00 0.79 0.23 66 1012.1
20200802195403 27 245 3.2 12.9 0.00 0.79 0.23 65 1012.2
20200802194904 27 237 1.6 12.9 0.00 0.81 0.23 63 1012.2
20200802194404 27 172 4.8 12.9 0.00 0.81 0.23 63 1012.2
20200802193903 28 174 4.8 11.3 0.00 0.84 0.23 63 1012.3
20200802193404 28 168 3.2 11.3 0.00 0.84 0.23 61 1012.4
20200802192903 28 199 1.6 11.3 0.00 0.86 0.23 61 1012.4
20200802192404 29 174 4.8 19.3 0.03 0.89 0.23 62 1012.5
20200802191904 29 164 3.2 19.3 0.03 0.89 0.23 61 1012.5
20200802191404 29 182 4.8 12.9 0.03 0.91 0.23 61 1012.5
20200802190905 29 188 0.0 11.3 0.03 0.91 0.23 61 1012.5
20200802190403 29 212 1.6 9.7 0.03 0.94 0.23 61 1012.6
20200802185903 28 181 0.0 11.3 0.03 0.97 0.23 64 1012.6
20200802185403 28 167 4.8 12.9 0.03 0.97 0.23 65 1012.6
20200802184903 28 173 0.0 16.1 0.03 0.99 0.23 63 1012.6
20200802184404 28 193 8.0 16.1 0.03 1.02 0.23 60 1012.6
20200802183904 28 219 1.6 14.5 0.03 1.02 0.23 61 1012.6
20200802183404 28 235 1.6 14.5 0.03 1.04 0.23 61 1012.6
20200802182904 28 199 4.8 11.3 0.03 1.07 0.23 64 1012.7
20200802182404 28 229 1.6 19.3 0.00 1.07 0.20 64 1012.7
20200802181904 27 145 1.6 19.3 0.00 1.07 0.20 64 1012.8
20200802181404 27 179 8.0 19.3 0.00 1.09 0.20 65 1012.8
20200802180903 27 258 6.4 14.5 0.00 1.12 0.20 64 1012.9
20200802180404 27 258 1.6 14.5 0.00 1.12 0.20 65 1013.0
20200802175904 28 241 8.0 14.5 0.00 1.14 0.20 64 1013.1
20200802175403 27 172 3.2 19.3 0.00 1.17 0.20 67 1013.1
20200802174903 27 275 6.4 19.3 0.00 1.17 0.20 64 1013.1
20200802174403 27 271 8.0 19.3 0.00 1.17 0.20 65 1013.2
20200802173904 27 255 8.0 14.5 0.00 1.17 0.20 64 1013.2
20200802173404 27 225 4.8 14.5 0.03 1.17 0.20 68 1013.3
20200802172904 27 275 4.8 19.3 0.03 1.17 0.20 68 1013.2
20200802172404 27 276 4.8 19.3 0.03 1.17 0.20 66 1013.3
20200802171904 27 255 9.7 19.3 0.03 1.17 0.20 67 1013.3
20200802171403 27 258 4.8 12.9 0.03 1.17 0.20 69 1013.3
20200802170904 27 274 3.2 14.5 0.03 1.17 0.20 69 1013.3
20200802170403 27 173 6.4 14.5 0.03 1.17 0.20 69 1013.3
20200802165904 26 269 3.2 14.5 0.03 1.17 0.20 70 1013.3
20200802165405 26 254 1.6 14.5 0.03 1.17 0.20 70 1013.4
20200802164904 26 251 8.0 12.9 0.03 1.17 0.20 70 1013.4
20200802164404 26 281 1.6 12.9 0.03 1.17 0.20 70 1013.4
20200802163904 26 279 0.0 12.9 0.03 1.17 0.20 72 1013.5
20200802163404 26 170 0.0 12.9 0.00 1.14 0.18 74 1013.6
20200802162904 26 229 0.0 12.9 0.00 1.14 0.18 73 1013.6
20200802162404 26 206 1.6 12.9 0.03 1.14 0.18 73 1013.6
20200802161904 26 228 4.8 12.9 0.03 1.14 0.18 76 1013.6
20200802161404 26 279 3.2 11.3 0.03 1.14 0.18 75 1013.6
20200802160904 26 228 0.0 11.3 0.03 1.14 0.18 76 1013.6
20200802160403 25 275 1.6 11.3 0.03 1.14 0.18 75 1013.7
20200802155904 25 155 1.6 12.9 0.03 1.14 0.18 78 1013.7
20200802155404 25 149 0.0 12.9 0.03 1.14 0.18 80 1013.7
20200802154904 25 270 3.2 12.9 0.03 1.14 0.18 79 1013.7
20200802154403 24 219 1.6 9.7 0.03 1.14 0.18 80 1013.8
20200802153904 24 251 0.0 8.0 0.03 1.14 0.18 80 1013.8
20200802153403 24 252 0.0 12.9 0.03 1.14 0.18 79 1013.9
20200802152903 25 261 4.8 12.9 0.03 1.14 0.18 77 1013.8